createdAt,value
2022-07-25T00:01:15.102Z,98898.59
2022-07-25T00:04:00.828Z,98898.47
2022-07-25T00:06:48.290Z,98893.78
2022-07-25T00:09:34.287Z,98888.22
2022-07-25T00:12:20.533Z,98887.91
2022-07-25T00:15:07.170Z,98882.63
2022-07-25T00:17:53.048Z,98880.31
2022-07-25T00:20:38.375Z,98871.47
2022-07-25T00:23:23.867Z,98871.78
2022-07-25T00:26:09.170Z,98878.16
2022-07-25T00:28:54.469Z,98878.16
2022-07-25T00:31:39.895Z,98873.03
2022-07-25T00:34:25.089Z,98882.31
2022-07-25T00:37:10.514Z,98873.94
2022-07-25T00:39:55.741Z,98871.94
2022-07-25T00:42:41.015Z,98875.16
2022-07-25T00:45:26.366Z,98883.53
2022-07-25T00:48:11.692Z,98876.75
2022-07-25T00:50:57.405Z,98869.25
2022-07-25T00:53:42.948Z,98867.56
2022-07-25T00:56:28.462Z,98862.31
2022-07-25T00:59:14.020Z,98858.75
2022-07-25T01:01:59.608Z,98861.09
2022-07-25T01:04:49.367Z,98862.78
2022-07-25T01:07:35.550Z,98854.41
2022-07-25T01:10:20.972Z,98850.81
2022-07-25T01:13:06.499Z,98854.84
2022-07-25T01:15:51.938Z,98850.50
2022-07-25T01:18:37.509Z,98842.91
2022-07-25T01:21:24.843Z,98846.47
2022-07-25T01:24:11.020Z,98842.59
2022-07-25T01:26:56.596Z,98842.59
2022-07-25T01:29:41.935Z,98835.44
2022-07-25T01:32:27.344Z,98831.88
2022-07-25T01:35:14.047Z,98836.69
2022-07-25T01:37:59.568Z,98826.28
2022-07-25T01:40:46.292Z,98828.97
2022-07-25T01:43:31.949Z,98828.63
2022-07-25T01:46:17.360Z,98822.25
2022-07-25T01:49:03.334Z,98822.72
2022-07-25T01:51:48.708Z,98820.38
2022-07-25T01:54:33.971Z,98816.38
2022-07-25T01:57:19.869Z,98812.78
2022-07-25T02:00:09.122Z,98812.00
2022-07-25T02:03:16.026Z,98810.91
2022-07-25T02:06:04.387Z,98812.78
2022-07-25T02:08:50.030Z,98804.06
2022-07-25T02:11:35.897Z,98806.09
2022-07-25T02:14:21.586Z,98803.31
2022-07-25T02:17:07.201Z,98801.75
2022-07-25T02:19:52.828Z,98795.38
2022-07-25T02:22:38.014Z,98804.22
2022-07-25T02:25:23.140Z,98797.88
2022-07-25T02:28:08.711Z,98800.19
2022-07-25T02:30:56.242Z,98795.84
2022-07-25T02:33:41.605Z,98799.41
2022-07-25T02:36:26.827Z,98794.75
2022-07-25T02:39:12.527Z,98794.75
2022-07-25T02:41:57.726Z,98789.16
2022-07-25T02:44:42.979Z,98789.94
2022-07-25T02:47:28.228Z,98785.13
2022-07-25T02:50:14.837Z,98782.34
2022-07-25T02:53:00.335Z,98790.38
2022-07-25T02:55:45.782Z,98780.00
2022-07-25T02:58:31.498Z,98782.00
2022-07-25T03:01:17.077Z,98777.19
2022-07-25T03:04:02.698Z,98775.66
2022-07-25T03:06:48.205Z,98776.09
2022-07-25T03:09:33.448Z,98778.00
2022-07-25T03:12:18.825Z,98776.44
2022-07-25T03:15:05.235Z,98776.44
2022-07-25T03:17:50.566Z,98775.34
2022-07-25T03:20:35.762Z,98766.19
2022-07-25T03:23:21.138Z,98771.31
2022-07-25T03:26:06.538Z,98770.19
2022-07-25T03:28:51.980Z,98759.03
2022-07-25T03:31:37.345Z,98766.19
2022-07-25T03:34:22.394Z,98764.63
2022-07-25T03:37:07.632Z,98763.06
2022-07-25T03:39:53.027Z,98756.72
2022-07-25T03:42:38.709Z,98752.22
2022-07-25T03:45:24.207Z,98758.59
2022-07-25T03:48:09.715Z,98755.81
2022-07-25T03:50:56.916Z,98755.03
2022-07-25T03:54:01.000Z,98754.50
2022-07-25T03:56:49.285Z,98752.69
2022-07-25T03:59:34.780Z,98759.03
2022-07-25T04:02:20.288Z,98742.63
2022-07-25T04:05:08.367Z,98746.22
2022-07-25T04:07:53.902Z,98739.97
2022-07-25T04:10:39.276Z,98733.59
2022-07-25T04:13:24.406Z,98738.28
2022-07-25T04:16:14.466Z,98732.06
2022-07-25T04:19:07.846Z,98724.13
2022-07-25T04:21:53.891Z,98719.34
2022-07-25T04:24:39.000Z,98717.00
2022-07-25T04:27:24.370Z,98712.63
2022-07-25T04:30:10.687Z,98709.72
2022-07-25T04:32:56.333Z,98704.16
2022-07-25T04:35:41.812Z,98700.09
2022-07-25T04:38:27.133Z,98704.91
2022-07-25T04:41:12.609Z,98691.44
2022-07-25T04:43:57.960Z,98692.06
2022-07-25T04:46:43.191Z,98689.91
2022-07-25T04:49:29.029Z,98693.47
2022-07-25T04:52:14.464Z,98690.69
2022-07-25T04:55:00.723Z,98681.56
2022-07-25T04:57:47.202Z,98674.28
2022-07-25T05:00:32.865Z,98684.97
2022-07-25T05:03:18.376Z,98679.41
2022-07-25T05:06:03.735Z,98673.81
2022-07-25T05:08:48.997Z,98674.28
2022-07-25T05:11:34.246Z,98666.50
2022-07-25T05:14:20.099Z,98665.41
2022-07-25T05:17:06.813Z,98660.44
2022-07-25T05:19:52.317Z,98651.56
2022-07-25T05:22:37.558Z,98658.84
2022-07-25T05:25:23.102Z,98655.75
2022-07-25T05:28:08.243Z,98643.03
2022-07-25T05:30:55.118Z,98649.84
2022-07-25T05:33:40.294Z,98645.19
2022-07-25T05:36:25.547Z,98648.91
2022-07-25T05:39:11.131Z,98649.78
2022-07-25T05:41:56.461Z,98644.09
2022-07-25T05:44:42.039Z,98645.50
2022-07-25T05:47:27.336Z,98640.84
2022-07-25T05:50:12.741Z,98629.38
2022-07-25T05:53:00.428Z,98631.34
2022-07-25T05:55:46.116Z,98622.22
2022-07-25T05:58:32.141Z,98621.91
2022-07-25T06:01:18.387Z,98623.13
2022-07-25T06:04:06.677Z,98614.78
2022-07-25T06:06:52.417Z,98617.09
2022-07-25T06:09:38.673Z,98611.97
2022-07-25T06:12:24.373Z,98610.72
2022-07-25T06:15:12.638Z,98611.38
2022-07-25T06:18:08.047Z,98610.47
2022-07-25T06:20:53.851Z,98616.84
2022-07-25T06:23:39.219Z,98608.91
2022-07-25T06:26:25.100Z,98606.91
2022-07-25T06:29:12.174Z,98602.41
2022-07-25T06:31:58.005Z,98592.94
2022-07-25T06:34:43.916Z,98586.59
2022-07-25T06:37:29.578Z,98596.06
2022-07-25T06:40:15.719Z,98586.91
2022-07-25T06:43:01.919Z,98592.03
2022-07-25T06:45:48.444Z,98581.66
2022-07-25T06:48:34.406Z,98577.31
2022-07-25T06:51:23.396Z,98576.06
2022-07-25T06:54:09.557Z,98564.59
2022-07-25T06:56:55.435Z,98566.13
2022-07-25T06:59:40.943Z,98555.63
2022-07-25T07:02:26.326Z,98544.47
2022-07-25T07:05:11.688Z,98555.63
2022-07-25T07:07:57.922Z,98554.72
2022-07-25T07:10:43.766Z,98557.50
2022-07-25T07:13:29.265Z,98553.91
2022-07-25T07:16:14.480Z,98551.94
2022-07-25T07:18:59.829Z,98553.34
2022-07-25T07:21:45.786Z,98552.53
2022-07-25T07:24:32.430Z,98556.44
2022-07-25T07:27:19.029Z,98557.53
2022-07-25T07:30:05.462Z,98557.84
2022-07-25T07:32:52.295Z,98560.66
2022-07-25T07:35:38.116Z,98545.31
2022-07-25T07:38:24.460Z,98544.69
2022-07-25T07:41:10.091Z,98550.28
2022-07-25T07:43:56.491Z,98545.03
2022-07-25T07:46:42.023Z,98543.75
2022-07-25T07:49:27.383Z,98538.19
2022-07-25T07:52:13.064Z,98542.53
2022-07-25T07:55:16.831Z,98554.03
2022-07-25T07:58:02.406Z,98546.41
2022-07-25T08:00:52.687Z,98542.38
2022-07-25T08:03:38.263Z,98538.69
2022-07-25T08:06:23.808Z,98534.97
2022-07-25T08:09:09.589Z,98532.94
2022-07-25T08:11:54.893Z,98535.28
2022-07-25T08:14:40.371Z,98538.38
2022-07-25T08:17:28.646Z,98529.56
2022-07-25T08:20:35.769Z,98533.44
2022-07-25T08:23:20.353Z,98531.72
2022-07-25T08:26:06.752Z,98544.47
2022-07-25T08:29:04.922Z,98526.94
2022-07-25T08:31:56.719Z,98538.75
2022-07-25T08:34:42.438Z,98529.09
2022-07-25T08:37:28.578Z,98522.31
2022-07-25T08:40:15.516Z,98517.81
2022-07-25T08:43:01.066Z,98537.34
2022-07-25T08:45:54.091Z,98527.25
2022-07-25T08:48:40.477Z,98533.63
2022-07-25T08:51:26.022Z,98533.63
2022-07-25T08:54:11.458Z,98526.34
2022-07-25T08:56:56.712Z,98512.38
2022-07-25T08:59:42.726Z,98522.94
2022-07-25T09:02:29.230Z,98514.25
2022-07-25T09:05:14.554Z,98517.34
2022-07-25T09:08:10.009Z,98513.31
2022-07-25T09:10:55.609Z,98506.50
2022-07-25T09:13:41.911Z,98508.03
2022-07-25T09:16:35.873Z,98510.81
2022-07-25T09:19:25.971Z,98512.38
2022-07-25T09:22:12.010Z,98501.22
2022-07-25T09:24:57.948Z,98509.59
2022-07-25T09:27:43.415Z,98505.84
2022-07-25T09:30:29.013Z,98498.75
2022-07-25T09:33:14.605Z,98499.03
2022-07-25T09:36:11.923Z,98502.94
2022-07-25T09:39:04.845Z,98512.06
2022-07-25T09:41:51.071Z,98500.91
2022-07-25T09:44:36.586Z,98491.44
2022-07-25T09:47:22.028Z,98488.16
2022-07-25T09:50:07.738Z,98493.59
2022-07-25T09:52:57.504Z,98490.34
2022-07-25T09:55:43.352Z,98490.66
2022-07-25T09:58:29.491Z,98476.69
2022-07-25T10:01:25.964Z,98483.19
2022-07-25T10:04:36.900Z,98483.06
2022-07-25T10:07:27.076Z,98469.84
2022-07-25T10:10:24.834Z,98462.72
2022-07-25T10:13:11.515Z,98469.53
2022-07-25T10:15:57.134Z,98460.81
2022-07-25T10:18:49.663Z,98450.09
2022-07-25T10:21:34.863Z,98432.88
2022-07-25T10:24:20.190Z,98442.19
2022-07-25T10:27:09.716Z,98442.94
2022-07-25T10:29:56.051Z,98436.59
2022-07-25T10:33:05.390Z,98436.91
2022-07-25T10:35:50.831Z,98431.00
2022-07-25T10:38:41.247Z,98443.75
2022-07-25T10:41:28.324Z,98425.72
2022-07-25T10:44:15.871Z,98424.66
2022-07-25T10:47:09.345Z,98421.38
2022-07-25T10:53:09.340Z,98413.47
2022-07-25T10:56:17.361Z,98410.22
2022-07-25T10:59:03.110Z,98394.03
2022-07-25T11:01:51.005Z,98397.91
2022-07-25T11:04:36.844Z,98401.94
2022-07-25T11:07:22.379Z,98391.06
2022-07-25T11:10:08.455Z,98391.53
2022-07-25T11:12:55.892Z,98386.25
2022-07-25T11:15:42.140Z,98389.84
2022-07-25T11:18:32.161Z,98391.38
2022-07-25T11:21:17.319Z,98395.28
2022-07-25T11:24:02.640Z,98374.59
2022-07-25T11:26:53.518Z,98378.50
2022-07-25T11:29:40.203Z,98367.00
2022-07-25T11:32:25.590Z,98374.47
2022-07-25T11:35:14.810Z,98363.31
2022-07-25T11:38:03.130Z,98363.88
2022-07-25T11:40:48.671Z,98360.50
2022-07-25T11:43:34.128Z,98360.50
2022-07-25T11:46:19.839Z,98357.72
2022-07-25T11:49:06.610Z,98344.97
2022-07-25T11:51:52.637Z,98343.72
2022-07-25T11:54:37.902Z,98340.13
2022-07-25T11:57:28.625Z,98337.34
2022-07-25T12:00:22.171Z,98326.31
2022-07-25T12:03:20.057Z,98330.84
2022-07-25T12:06:11.835Z,98336.25
2022-07-25T12:08:57.401Z,98325.06
2022-07-25T12:11:43.859Z,98325.41
2022-07-25T12:14:35.137Z,98317.31
2022-07-25T12:17:20.867Z,98309.84
2022-07-25T12:20:13.654Z,98316.06
2022-07-25T12:23:02.355Z,98305.38
2022-07-25T12:25:48.140Z,98299.47
2022-07-25T12:28:33.787Z,98299.00
2022-07-25T12:31:19.209Z,98291.38
2022-07-25T12:34:05.036Z,98289.38
2022-07-25T12:36:50.395Z,98279.44
2022-07-25T12:39:35.813Z,98285.50
2022-07-25T12:42:21.389Z,98286.69
2022-07-25T12:45:08.439Z,98275.53
2022-07-25T12:47:54.196Z,98259.22
2022-07-25T12:50:39.633Z,98260.16
2022-07-25T12:53:25.005Z,98268.53
2022-07-25T12:56:10.471Z,98250.53
2022-07-25T12:58:56.753Z,98249.88
2022-07-25T13:01:42.580Z,98258.75
2022-07-25T13:04:28.863Z,98248.34
2022-07-25T13:07:16.193Z,98243.97
2022-07-25T13:10:03.795Z,98241.91
2022-07-25T13:12:49.384Z,98235.81
2022-07-25T13:15:36.662Z,98237.09
2022-07-25T13:18:23.055Z,98223.56
2022-07-25T13:21:09.341Z,98224.66
2022-07-25T13:23:55.095Z,98220.63
2022-07-25T13:26:41.604Z,98215.03
2022-07-25T13:29:27.740Z,98204.50
2022-07-25T13:32:13.400Z,98217.53
2022-07-25T13:34:59.004Z,98202.22
2022-07-25T13:37:44.300Z,98201.44
2022-07-25T13:40:29.565Z,98206.56
2022-07-25T13:43:15.149Z,98198.19
2022-07-25T13:46:01.834Z,98183.44
2022-07-25T13:48:47.310Z,98192.22
2022-07-25T13:51:32.944Z,98180.56
2022-07-25T13:54:18.503Z,98183.16
2022-07-25T13:57:05.982Z,98169.28
2022-07-25T13:59:51.291Z,98167.47
2022-07-25T14:02:36.926Z,98170.94
2022-07-25T14:05:23.401Z,98165.34
2022-07-25T14:08:09.560Z,98166.41
2022-07-25T14:10:55.020Z,98169.78
2022-07-25T14:13:40.259Z,98159.66
2022-07-25T14:16:25.638Z,98161.56
2022-07-25T14:19:11.477Z,98153.69
2022-07-25T14:21:56.964Z,98148.25
2022-07-25T14:24:42.488Z,98147.28
2022-07-25T14:27:27.668Z,98145.28
2022-07-25T14:30:13.684Z,98138.59
2022-07-25T14:32:59.094Z,98143.44
2022-07-25T14:35:44.759Z,98137.53
2022-07-25T14:38:30.056Z,98141.13
2022-07-25T14:41:16.111Z,98135.25
2022-07-25T14:44:01.767Z,98123.56
2022-07-25T14:46:49.135Z,98128.38
2022-07-25T14:49:34.694Z,98119.53
2022-07-25T14:52:20.764Z,98110.38
2022-07-25T14:55:06.676Z,98105.03
2022-07-25T14:57:52.031Z,98099.44
2022-07-25T15:00:41.863Z,98091.03
2022-07-25T15:03:27.472Z,98093.38
2022-07-25T15:06:13.075Z,98082.19
2022-07-25T15:08:58.259Z,98086.03
2022-07-25T15:11:43.720Z,98073.91
2022-07-25T15:14:29.574Z,98065.00
2022-07-25T15:17:15.035Z,98071.09
2022-07-25T15:20:00.252Z,98061.16
2022-07-25T15:22:45.657Z,98062.72
2022-07-25T15:26:01.349Z,98051.41
2022-07-25T15:28:37.951Z,98059.63
2022-07-25T15:31:24.744Z,98057.22
2022-07-25T15:34:12.727Z,98056.06
2022-07-25T15:36:58.475Z,98059.78
2022-07-25T15:39:45.406Z,98060.00
2022-07-25T15:42:32.116Z,98057.22
2022-07-25T15:45:36.270Z,98051.78
2022-07-25T15:48:23.645Z,98037.34
2022-07-25T15:51:09.350Z,98043.63
2022-07-25T15:53:54.411Z,98046.03
2022-07-25T15:56:40.039Z,98038.50
2022-07-25T15:59:25.372Z,98032.13
2022-07-25T16:02:13.255Z,98031.81
2022-07-25T16:04:58.869Z,98014.78
2022-07-25T16:07:44.205Z,98014.78
2022-07-25T16:10:31.908Z,98009.97
2022-07-25T16:13:17.670Z,98004.16
2022-07-25T16:16:03.460Z,98005.50
2022-07-25T16:18:48.962Z,97994.13
2022-07-25T16:21:34.262Z,97997.22
2022-07-25T16:24:19.563Z,97999.44
2022-07-25T16:27:05.730Z,97995.28
2022-07-25T16:29:51.016Z,97988.94
2022-07-25T16:32:36.338Z,97982.06
2022-07-25T16:35:21.803Z,97976.19
2022-07-25T16:38:07.474Z,97983.34
2022-07-25T16:40:53.064Z,97974.72
2022-07-25T16:43:38.365Z,97974.47
2022-07-25T16:46:28.372Z,97967.91
2022-07-25T16:49:16.816Z,97963.84
2022-07-25T16:52:02.928Z,97956.00
2022-07-25T16:54:48.538Z,97948.59
2022-07-25T16:57:34.641Z,97951.41
2022-07-25T17:00:20.897Z,97941.25
2022-07-25T17:03:06.191Z,97939.53
2022-07-25T17:05:54.005Z,97941.25
2022-07-25T17:08:39.318Z,97943.59
2022-07-25T17:11:25.362Z,97935.66
2022-07-25T17:14:11.630Z,97935.47
2022-07-25T17:16:57.569Z,97940.78
2022-07-25T17:19:43.569Z,97941.25
2022-07-25T17:22:29.241Z,97944.63
2022-07-25T17:25:14.584Z,97947.44
2022-07-25T17:28:00.425Z,97945.41
2022-07-25T17:30:45.936Z,97948.97
2022-07-25T17:33:31.552Z,97941.84
2022-07-25T17:36:17.494Z,97954.56
2022-07-25T17:39:03.465Z,97946.94
2022-07-25T17:41:49.496Z,97939.03
2022-07-25T17:44:35.463Z,97941.63
2022-07-25T17:47:23.069Z,97941.63
2022-07-25T17:50:09.792Z,97943.94
2022-07-25T17:52:57.639Z,97946.16
2022-07-25T17:55:45.873Z,97949.47
2022-07-25T17:58:32.249Z,97953.03
2022-07-25T18:01:18.028Z,97961.91
2022-07-25T18:04:04.244Z,98035.38
2022-07-25T18:06:50.252Z,98070.31
2022-07-25T18:09:36.349Z,98076.88
2022-07-25T18:12:26.024Z,98089.34
2022-07-25T18:15:15.502Z,98085.75
2022-07-25T18:18:02.263Z,98078.16
2022-07-25T18:20:48.027Z,98094.13
2022-07-25T18:23:34.163Z,98096.16
2022-07-25T18:26:21.852Z,98097.91
2022-07-25T18:29:08.333Z,98107.06
2022-07-25T18:31:53.816Z,98105.81
2022-07-25T18:34:40.048Z,98101.00
2022-07-25T18:37:26.113Z,98106.59
2022-07-25T18:40:12.452Z,98119.31
2022-07-25T18:42:58.095Z,98108.91
2022-07-25T18:45:46.776Z,98107.66
2022-07-25T18:48:34.019Z,98111.97
2022-07-25T18:51:20.151Z,98099.06
2022-07-25T18:54:07.011Z,98100.31
2022-07-25T18:56:57.063Z,98103.13
2022-07-25T18:59:43.785Z,98107.19
2022-07-25T19:02:30.154Z,98102.81
2022-07-25T19:05:17.142Z,98100.53
2022-07-25T19:08:03.756Z,98109.69
2022-07-25T19:10:49.623Z,98115.75
2022-07-25T19:13:50.399Z,98113.25
2022-07-25T19:16:41.604Z,98107.47
2022-07-25T19:19:29.629Z,98107.19
2022-07-25T19:22:16.073Z,98109.69
2022-07-25T19:25:05.753Z,98115.75
2022-07-25T19:27:51.706Z,98112.78
2022-07-25T19:30:37.743Z,98107.66
2022-07-25T19:33:24.172Z,98124.44
2022-07-25T19:36:10.315Z,98123.66
2022-07-25T19:38:57.094Z,98139.19
2022-07-25T19:41:47.207Z,98139.88
2022-07-25T19:44:33.229Z,98154.63
2022-07-25T19:47:19.405Z,98162.25
2022-07-25T19:50:06.213Z,98145.47
2022-07-25T19:52:54.500Z,98145.47
2022-07-25T19:55:40.633Z,98136.59
2022-07-25T19:58:26.082Z,98141.13
2022-07-25T20:01:12.315Z,98160.41
2022-07-25T20:03:58.218Z,98181.72
2022-07-25T20:06:44.019Z,98161.06
2022-07-25T20:09:30.345Z,98145.56
2022-07-25T20:12:16.185Z,98123.34
2022-07-25T20:15:01.558Z,98131.94
2022-07-25T20:17:47.001Z,98126.06
2022-07-25T20:20:32.323Z,98106.47
2022-07-25T20:23:17.820Z,98107.72
2022-07-25T20:26:04.262Z,98118.31
2022-07-25T20:28:49.585Z,98125.66
2022-07-25T20:31:36.054Z,98137.63
2022-07-25T20:34:22.236Z,98147.72
2022-07-25T20:37:07.587Z,98143.38
2022-07-25T20:39:52.941Z,98136.75
2022-07-25T20:42:39.674Z,98139.25
2022-07-25T20:45:25.160Z,98132.59
2022-07-25T20:48:10.383Z,98124.66
2022-07-25T20:50:57.204Z,98122.84
2022-07-25T20:53:43.853Z,98125.34
2022-07-25T20:56:29.234Z,98133.22
2022-07-25T20:59:14.562Z,98125.34
2022-07-25T21:02:00.318Z,98132.16
2022-07-25T21:04:48.571Z,98125.03
2022-07-25T21:07:34.047Z,98117.59
2022-07-25T21:10:19.841Z,98120.59
2022-07-25T21:13:05.124Z,98133.78
2022-07-25T21:15:50.562Z,98148.97
2022-07-25T21:18:37.351Z,98144.94
2022-07-25T21:21:23.639Z,98140.28
2022-07-25T21:24:11.891Z,98149.19
2022-07-25T21:26:57.226Z,98148.38
2022-07-25T21:29:42.660Z,98152.44
2022-07-25T21:32:27.941Z,98155.22
2022-07-25T21:35:13.488Z,98155.69
2022-07-25T21:37:59.305Z,98151.84
2022-07-25T21:40:44.947Z,98139.59
2022-07-25T21:43:30.501Z,98146.41
2022-07-25T21:46:15.787Z,98146.91
2022-07-25T21:49:41.515Z,98146.41
2022-07-25T21:52:34.492Z,98151.75
2022-07-25T21:55:21.555Z,98158.09
2022-07-25T21:58:07.836Z,98167.25
2022-07-25T22:00:53.452Z,98171.31
2022-07-25T22:03:40.441Z,98171.31
2022-07-25T22:06:26.132Z,98164.91
2022-07-25T22:09:13.561Z,98163.09
2022-07-25T22:11:59.008Z,98172.22
2022-07-25T22:14:44.679Z,98165.88
2022-07-25T22:17:48.964Z,98173.19
2022-07-25T22:20:35.276Z,98168.38
2022-07-25T22:23:20.531Z,98185.59
2022-07-25T22:26:05.756Z,98184.38
2022-07-25T22:28:51.237Z,98190.44
2022-07-25T22:31:38.835Z,98198.34
2022-07-25T22:34:24.461Z,98181.28
2022-07-25T22:37:09.733Z,98209.22
2022-07-25T22:40:00.608Z,98214.81
2022-07-25T22:42:46.238Z,98224.16
2022-07-25T22:45:31.650Z,98224.16
2022-07-25T22:48:17.309Z,98236.09
2022-07-25T22:51:02.781Z,98235.78
2022-07-25T22:53:48.214Z,98239.34
2022-07-25T22:56:33.565Z,98244.94
2022-07-25T22:59:19.361Z,98245.88
2022-07-25T23:02:05.014Z,98241.22
2022-07-25T23:04:50.117Z,98242.03
2022-07-25T23:07:35.687Z,98257.53
2022-07-25T23:10:20.830Z,98277.84
2022-07-25T23:13:06.238Z,98273.22
2022-07-25T23:15:51.684Z,98289.22
2022-07-25T23:18:37.458Z,98302.09
2022-07-25T23:21:24.606Z,98312.47
2022-07-25T23:24:10.223Z,98316.53
2022-07-25T23:26:55.484Z,98319.31
2022-07-25T23:29:41.727Z,98324.91
2022-07-25T23:32:26.897Z,98344.47
2022-07-25T23:35:12.370Z,98357.19
2022-07-25T23:37:57.692Z,98362.75
2022-07-25T23:40:42.997Z,98363.56
2022-07-25T23:43:55.646Z,98364.78
2022-07-25T23:46:33.675Z,98354.06
2022-07-25T23:49:20.885Z,98363.56
2022-07-25T23:52:06.297Z,98373.94
2022-07-25T23:54:51.555Z,98371.16
2022-07-25T23:57:36.900Z,98381.09
